sensor_id;sensor_type;location;lat;lon;timestamp;P1;durP1;ratioP1;P2;durP2;ratioP2
65405;SDS011;52016;51.228;-2.322;2022-11-20T00:01:05;9.15;;;5.25;;
65405;SDS011;52016;51.228;-2.322;2022-11-20T00:04:54;10.05;;;5.47;;
65405;SDS011;52016;51.228;-2.322;2022-11-20T00:08:36;6.07;;;3.88;;
65405;SDS011;52016;51.228;-2.322;2022-11-20T00:12:18;10.10;;;4.95;;
65405;SDS011;52016;51.228;-2.322;2022-11-20T00:16:01;8.02;;;4.43;;
65405;SDS011;52016;51.228;-2.322;2022-11-20T00:19:44;10.57;;;5.15;;
65405;SDS011;52016;51.228;-2.322;2022-11-20T00:23:26;8.52;;;4.32;;
65405;SDS011;52016;51.228;-2.322;2022-11-20T00:27:08;8.15;;;4.32;;
65405;SDS011;52016;51.228;-2.322;2022-11-20T00:30:50;12.98;;;4.53;;
65405;SDS011;52016;51.228;-2.322;2022-11-20T00:34:32;10.10;;;5.28;;
65405;SDS011;52016;51.228;-2.322;2022-11-20T00:38:13;11.70;;;5.07;;
65405;SDS011;52016;51.228;-2.322;2022-11-20T00:41:55;11.10;;;4.88;;
65405;SDS011;52016;51.228;-2.322;2022-11-20T00:45:37;8.55;;;4.32;;
65405;SDS011;52016;51.228;-2.322;2022-11-20T00:49:19;9.15;;;5.15;;
65405;SDS011;52016;51.228;-2.322;2022-11-20T00:53:01;7.97;;;4.50;;
65405;SDS011;52016;51.228;-2.322;2022-11-20T00:56:43;9.18;;;5.07;;
65405;SDS011;52016;51.228;-2.322;2022-11-20T01:00:33;11.05;;;4.93;;
65405;SDS011;52016;51.228;-2.322;2022-11-20T01:04:15;10.57;;;5.13;;
65405;SDS011;52016;51.228;-2.322;2022-11-20T01:07:57;9.73;;;4.95;;
65405;SDS011;52016;51.228;-2.322;2022-11-20T01:11:40;11.68;;;5.40;;
65405;SDS011;52016;51.228;-2.322;2022-11-20T01:15:23;9.27;;;4.07;;
65405;SDS011;52016;51.228;-2.322;2022-11-20T01:19:06;7.82;;;4.18;;
65405;SDS011;52016;51.228;-2.322;2022-11-20T01:22:55;6.25;;;4.00;;
65405;SDS011;52016;51.228;-2.322;2022-11-20T01:26:37;6.07;;;4.03;;
65405;SDS011;52016;51.228;-2.322;2022-11-20T01:30:20;9.35;;;4.32;;
65405;SDS011;52016;51.228;-2.322;2022-11-20T01:34:03;6.55;;;4.10;;
65405;SDS011;52016;51.228;-2.322;2022-11-20T01:37:47;6.63;;;4.47;;
65405;SDS011;52016;51.228;-2.322;2022-11-20T01:41:29;5.20;;;3.33;;
65405;SDS011;52016;51.228;-2.322;2022-11-20T01:49:44;3.92;;;2.50;;
65405;SDS011;52016;51.228;-2.322;2022-11-20T01:53:32;5.53;;;3.40;;
65405;SDS011;52016;51.228;-2.322;2022-11-20T01:57:17;3.90;;;2.80;;
65405;SDS011;52016;51.228;-2.322;2022-11-20T02:01:00;4.43;;;3.10;;
65405;SDS011;52016;51.228;-2.322;2022-11-20T02:04:43;6.05;;;3.40;;
65405;SDS011;52016;51.228;-2.322;2022-11-20T02:08:25;5.30;;;2.47;;
65405;SDS011;52016;51.228;-2.322;2022-11-20T02:12:07;4.93;;;3.10;;
65405;SDS011;52016;51.228;-2.322;2022-11-20T02:20:05;4.10;;;2.50;;
65405;SDS011;52016;51.228;-2.322;2022-11-20T02:27:38;1.63;;;1.30;;
65405;SDS011;52016;51.228;-2.322;2022-11-20T02:31:20;6.18;;;3.22;;
65405;SDS011;52016;51.228;-2.322;2022-11-20T02:38:58;1.40;;;1.30;;
65405;SDS011;52016;51.228;-2.322;2022-11-20T02:42:40;2.65;;;1.50;;
65405;SDS011;52016;51.228;-2.322;2022-11-20T02:46:22;1.27;;;1.27;;
65405;SDS011;52016;51.228;-2.322;2022-11-20T02:50:04;1.35;;;0.98;;
65405;SDS011;52016;51.228;-2.322;2022-11-20T02:53:47;1.38;;;1.10;;
65405;SDS011;52016;51.228;-2.322;2022-11-20T02:57:29;1.42;;;1.13;;
65405;SDS011;52016;51.228;-2.322;2022-11-20T03:01:10;1.23;;;1.10;;
65405;SDS011;52016;51.228;-2.322;2022-11-20T03:04:52;1.17;;;1.00;;
65405;SDS011;52016;51.228;-2.322;2022-11-20T03:08:34;0.90;;;0.90;;
65405;SDS011;52016;51.228;-2.322;2022-11-20T03:12:16;1.02;;;1.00;;
65405;SDS011;52016;51.228;-2.322;2022-11-20T03:15:58;2.60;;;1.13;;
65405;SDS011;52016;51.228;-2.322;2022-11-20T03:19:45;0.90;;;0.87;;
65405;SDS011;52016;51.228;-2.322;2022-11-20T03:23:28;1.60;;;0.90;;
65405;SDS011;52016;51.228;-2.322;2022-11-20T03:27:12;0.80;;;0.80;;
65405;SDS011;52016;51.228;-2.322;2022-11-20T03:30:53;4.50;;;1.00;;
65405;SDS011;52016;51.228;-2.322;2022-11-20T03:34:35;4.55;;;0.80;;
65405;SDS011;52016;51.228;-2.322;2022-11-20T03:38:17;0.73;;;0.73;;
65405;SDS011;52016;51.228;-2.322;2022-11-20T03:41:59;1.10;;;1.00;;
65405;SDS011;52016;51.228;-2.322;2022-11-20T03:45:40;1.02;;;0.90;;
65405;SDS011;52016;51.228;-2.322;2022-11-20T03:49:22;2.35;;;1.02;;
65405;SDS011;52016;51.228;-2.322;2022-11-20T03:53:04;4.03;;;1.08;;
65405;SDS011;52016;51.228;-2.322;2022-11-20T03:56:46;0.70;;;0.70;;
65405;SDS011;52016;51.228;-2.322;2022-11-20T04:00:28;0.85;;;0.80;;
65405;SDS011;52016;51.228;-2.322;2022-11-20T04:04:09;1.92;;;0.90;;
65405;SDS011;52016;51.228;-2.322;2022-11-20T04:07:51;1.20;;;0.75;;
65405;SDS011;52016;51.228;-2.322;2022-11-20T04:11:34;1.20;;;1.00;;
65405;SDS011;52016;51.228;-2.322;2022-11-20T04:15:16;1.33;;;0.50;;
65405;SDS011;52016;51.228;-2.322;2022-11-20T04:18:59;0.68;;;0.68;;
65405;SDS011;52016;51.228;-2.322;2022-11-20T04:22:43;0.60;;;0.60;;
65405;SDS011;52016;51.228;-2.322;2022-11-20T04:26:26;1.02;;;0.70;;
65405;SDS011;52016;51.228;-2.322;2022-11-20T04:30:08;0.70;;;0.70;;
65405;SDS011;52016;51.228;-2.322;2022-11-20T04:33:50;0.60;;;0.60;;
65405;SDS011;52016;51.228;-2.322;2022-11-20T04:37:32;0.70;;;0.70;;
65405;SDS011;52016;51.228;-2.322;2022-11-20T04:41:15;0.93;;;0.90;;
65405;SDS011;52016;51.228;-2.322;2022-11-20T04:44:58;2.40;;;0.75;;
65405;SDS011;52016;51.228;-2.322;2022-11-20T04:48:40;0.90;;;0.90;;
65405;SDS011;52016;51.228;-2.322;2022-11-20T04:52:22;1.00;;;1.00;;
65405;SDS011;52016;51.228;-2.322;2022-11-20T04:56:07;1.88;;;0.90;;
65405;SDS011;52016;51.228;-2.322;2022-11-20T04:59:51;2.60;;;1.00;;
65405;SDS011;52016;51.228;-2.322;2022-11-20T05:03:33;1.70;;;1.20;;
65405;SDS011;52016;51.228;-2.322;2022-11-20T05:07:21;2.60;;;1.23;;
65405;SDS011;52016;51.228;-2.322;2022-11-20T05:11:03;1.70;;;1.20;;
65405;SDS011;52016;51.228;-2.322;2022-11-20T05:14:50;4.43;;;1.30;;
65405;SDS011;52016;51.228;-2.322;2022-11-20T05:18:32;5.13;;;1.35;;
65405;SDS011;52016;51.228;-2.322;2022-11-20T05:22:15;10.20;;;1.83;;
65405;SDS011;52016;51.228;-2.322;2022-11-20T05:25:57;7.72;;;1.95;;
65405;SDS011;52016;51.228;-2.322;2022-11-20T05:29:39;10.75;;;2.00;;
65405;SDS011;52016;51.228;-2.322;2022-11-20T05:33:21;10.13;;;2.13;;
65405;SDS011;52016;51.228;-2.322;2022-11-20T05:37:03;14.20;;;2.42;;
65405;SDS011;52016;51.228;-2.322;2022-11-20T05:40:45;16.10;;;2.58;;
65405;SDS011;52016;51.228;-2.322;2022-11-20T05:44:27;13.73;;;2.65;;
65405;SDS011;52016;51.228;-2.322;2022-11-20T05:48:08;19.30;;;2.58;;
65405;SDS011;52016;51.228;-2.322;2022-11-20T05:51:50;10.25;;;2.50;;
65405;SDS011;52016;51.228;-2.322;2022-11-20T05:55:32;13.05;;;3.08;;
65405;SDS011;52016;51.228;-2.322;2022-11-20T05:59:13;19.67;;;3.80;;
65405;SDS011;52016;51.228;-2.322;2022-11-20T06:02:55;17.33;;;3.25;;
65405;SDS011;52016;51.228;-2.322;2022-11-20T06:06:37;20.33;;;3.25;;
65405;SDS011;52016;51.228;-2.322;2022-11-20T06:10:19;18.27;;;3.10;;
65405;SDS011;52016;51.228;-2.322;2022-11-20T06:14:01;17.98;;;3.42;;
65405;SDS011;52016;51.228;-2.322;2022-11-20T06:17:42;24.80;;;3.58;;
65405;SDS011;52016;51.228;-2.322;2022-11-20T06:21:24;22.50;;;4.18;;
65405;SDS011;52016;51.228;-2.322;2022-11-20T06:25:06;22.45;;;3.85;;
65405;SDS011;52016;51.228;-2.322;2022-11-20T06:28:48;21.27;;;4.22;;
65405;SDS011;52016;51.228;-2.322;2022-11-20T06:32:30;20.90;;;3.92;;
65405;SDS011;52016;51.228;-2.322;2022-11-20T06:36:14;29.30;;;4.72;;
65405;SDS011;52016;51.228;-2.322;2022-11-20T06:39:58;26.27;;;4.35;;
65405;SDS011;52016;51.228;-2.322;2022-11-20T06:43:39;30.05;;;4.60;;
65405;SDS011;52016;51.228;-2.322;2022-11-20T06:47:21;20.25;;;3.78;;
65405;SDS011;52016;51.228;-2.322;2022-11-20T06:51:03;19.40;;;3.78;;
65405;SDS011;52016;51.228;-2.322;2022-11-20T06:54:46;33.50;;;5.45;;
65405;SDS011;52016;51.228;-2.322;2022-11-20T06:58:28;22.30;;;4.45;;
65405;SDS011;52016;51.228;-2.322;2022-11-20T07:02:11;23.05;;;3.83;;
65405;SDS011;52016;51.228;-2.322;2022-11-20T07:05:56;26.70;;;4.80;;
65405;SDS011;52016;51.228;-2.322;2022-11-20T07:09:39;28.00;;;4.90;;
65405;SDS011;52016;51.228;-2.322;2022-11-20T07:13:20;29.90;;;4.80;;
65405;SDS011;52016;51.228;-2.322;2022-11-20T07:17:02;22.38;;;4.82;;
65405;SDS011;52016;51.228;-2.322;2022-11-20T07:20:44;27.23;;;4.25;;
65405;SDS011;52016;51.228;-2.322;2022-11-20T07:24:25;26.65;;;3.90;;
65405;SDS011;52016;51.228;-2.322;2022-11-20T07:28:07;21.80;;;4.13;;
65405;SDS011;52016;51.228;-2.322;2022-11-20T07:31:51;26.08;;;4.40;;
65405;SDS011;52016;51.228;-2.322;2022-11-20T07:35:33;27.25;;;4.72;;
65405;SDS011;52016;51.228;-2.322;2022-11-20T07:39:15;29.98;;;5.10;;
65405;SDS011;52016;51.228;-2.322;2022-11-20T07:42:56;24.33;;;4.10;;
65405;SDS011;52016;51.228;-2.322;2022-11-20T07:46:38;27.05;;;4.57;;
65405;SDS011;52016;51.228;-2.322;2022-11-20T07:50:20;26.65;;;4.65;;
65405;SDS011;52016;51.228;-2.322;2022-11-20T07:54:02;29.80;;;8.65;;
65405;SDS011;52016;51.228;-2.322;2022-11-20T07:57:44;24.27;;;4.70;;
65405;SDS011;52016;51.228;-2.322;2022-11-20T08:01:25;22.00;;;4.40;;
65405;SDS011;52016;51.228;-2.322;2022-11-20T08:05:08;28.33;;;4.75;;
65405;SDS011;52016;51.228;-2.322;2022-11-20T08:08:50;30.65;;;5.60;;
65405;SDS011;52016;51.228;-2.322;2022-11-20T08:12:32;28.38;;;5.28;;
65405;SDS011;52016;51.228;-2.322;2022-11-20T08:16:32;30.50;;;5.15;;
65405;SDS011;52016;51.228;-2.322;2022-11-20T08:20:14;34.05;;;7.35;;
65405;SDS011;52016;51.228;-2.322;2022-11-20T08:23:56;39.50;;;7.93;;
65405;SDS011;52016;51.228;-2.322;2022-11-20T08:27:38;34.08;;;7.35;;
65405;SDS011;52016;51.228;-2.322;2022-11-20T08:31:20;31.80;;;6.05;;
65405;SDS011;52016;51.228;-2.322;2022-11-20T08:35:03;32.70;;;6.25;;
65405;SDS011;52016;51.228;-2.322;2022-11-20T08:38:48;29.35;;;5.50;;
65405;SDS011;52016;51.228;-2.322;2022-11-20T08:42:31;29.52;;;5.03;;
65405;SDS011;52016;51.228;-2.322;2022-11-20T08:46:13;35.13;;;5.28;;
65405;SDS011;52016;51.228;-2.322;2022-11-20T08:49:55;32.78;;;6.55;;
65405;SDS011;52016;51.228;-2.322;2022-11-20T08:53:37;21.70;;;4.57;;
65405;SDS011;52016;51.228;-2.322;2022-11-20T08:57:19;27.52;;;5.18;;
65405;SDS011;52016;51.228;-2.322;2022-11-20T09:01:01;27.83;;;5.78;;
65405;SDS011;52016;51.228;-2.322;2022-11-20T09:04:43;24.67;;;5.47;;
65405;SDS011;52016;51.228;-2.322;2022-11-20T09:08:24;32.25;;;5.05;;
65405;SDS011;52016;51.228;-2.322;2022-11-20T09:12:07;35.50;;;5.38;;
65405;SDS011;52016;51.228;-2.322;2022-11-20T09:15:56;30.27;;;4.85;;
65405;SDS011;52016;51.228;-2.322;2022-11-20T09:19:39;31.02;;;4.97;;
65405;SDS011;52016;51.228;-2.322;2022-11-20T09:23:21;24.42;;;5.35;;
65405;SDS011;52016;51.228;-2.322;2022-11-20T09:27:04;32.53;;;5.90;;
65405;SDS011;52016;51.228;-2.322;2022-11-20T09:30:46;29.90;;;5.00;;
65405;SDS011;52016;51.228;-2.322;2022-11-20T09:34:28;34.67;;;4.85;;
65405;SDS011;52016;51.228;-2.322;2022-11-20T09:38:10;25.10;;;5.35;;
65405;SDS011;52016;51.228;-2.322;2022-11-20T09:41:59;25.10;;;4.90;;
65405;SDS011;52016;51.228;-2.322;2022-11-20T09:57:48;27.65;;;4.70;;
65405;SDS011;52016;51.228;-2.322;2022-11-20T10:01:34;27.77;;;5.05;;
65405;SDS011;52016;51.228;-2.322;2022-11-20T10:05:25;27.05;;;4.65;;
65405;SDS011;52016;51.228;-2.322;2022-11-20T10:09:37;27.75;;;5.22;;
65405;SDS011;52016;51.228;-2.322;2022-11-20T10:30:45;24.13;;;4.30;;
65405;SDS011;52016;51.228;-2.322;2022-11-20T10:34:45;20.20;;;3.67;;
65405;SDS011;52016;51.228;-2.322;2022-11-20T10:38:34;28.08;;;5.70;;
65405;SDS011;52016;51.228;-2.322;2022-11-20T10:42:56;23.48;;;4.90;;
65405;SDS011;52016;51.228;-2.322;2022-11-20T10:46:45;28.25;;;6.15;;
65405;SDS011;52016;51.228;-2.322;2022-11-20T10:50:27;20.88;;;5.40;;
65405;SDS011;52016;51.228;-2.322;2022-11-20T10:54:17;19.92;;;4.82;;
65405;SDS011;52016;51.228;-2.322;2022-11-20T10:58:14;24.25;;;5.15;;
65405;SDS011;52016;51.228;-2.322;2022-11-20T11:02:16;21.17;;;5.00;;
65405;SDS011;52016;51.228;-2.322;2022-11-20T11:14:05;27.33;;;5.35;;
65405;SDS011;52016;51.228;-2.322;2022-11-20T11:17:48;28.65;;;5.50;;
65405;SDS011;52016;51.228;-2.322;2022-11-20T11:21:29;22.55;;;4.95;;
65405;SDS011;52016;51.228;-2.322;2022-11-20T11:25:22;25.95;;;5.30;;
65405;SDS011;52016;51.228;-2.322;2022-11-20T11:29:16;24.38;;;5.00;;
65405;SDS011;52016;51.228;-2.322;2022-11-20T11:33:03;24.23;;;4.50;;
65405;SDS011;52016;51.228;-2.322;2022-11-20T11:37:05;23.63;;;4.82;;
65405;SDS011;52016;51.228;-2.322;2022-11-20T11:40:58;25.20;;;4.30;;
65405;SDS011;52016;51.228;-2.322;2022-11-20T11:44:43;23.00;;;4.50;;
65405;SDS011;52016;51.228;-2.322;2022-11-20T11:56:50;23.95;;;4.82;;
65405;SDS011;52016;51.228;-2.322;2022-11-20T12:00:34;20.85;;;4.35;;
65405;SDS011;52016;51.228;-2.322;2022-11-20T12:04:23;23.35;;;5.25;;
65405;SDS011;52016;51.228;-2.322;2022-11-20T12:12:15;24.15;;;5.07;;
65405;SDS011;52016;51.228;-2.322;2022-11-20T12:16:01;23.38;;;4.47;;
65405;SDS011;52016;51.228;-2.322;2022-11-20T12:19:44;20.58;;;3.80;;
65405;SDS011;52016;51.228;-2.322;2022-11-20T12:23:28;21.17;;;3.67;;
65405;SDS011;52016;51.228;-2.322;2022-11-20T12:35:25;20.65;;;4.15;;
65405;SDS011;52016;51.228;-2.322;2022-11-20T12:39:32;22.75;;;4.40;;
65405;SDS011;52016;51.228;-2.322;2022-11-20T12:43:27;24.42;;;6.43;;
65405;SDS011;52016;51.228;-2.322;2022-11-20T12:51:31;22.95;;;4.15;;
65405;SDS011;52016;51.228;-2.322;2022-11-20T12:59:49;19.90;;;4.40;;
65405;SDS011;52016;51.228;-2.322;2022-11-20T13:03:39;13.65;;;3.10;;
65405;SDS011;52016;51.228;-2.322;2022-11-20T13:07:28;15.02;;;2.95;;
65405;SDS011;52016;51.228;-2.322;2022-11-20T13:19:09;11.63;;;2.60;;
65405;SDS011;52016;51.228;-2.322;2022-11-20T13:22:55;10.13;;;2.40;;
65405;SDS011;52016;51.228;-2.322;2022-11-20T13:26:38;8.07;;;2.30;;
65405;SDS011;52016;51.228;-2.322;2022-11-20T13:30:20;6.15;;;3.20;;
65405;SDS011;52016;51.228;-2.322;2022-11-20T13:34:04;8.00;;;2.08;;
65405;SDS011;52016;51.228;-2.322;2022-11-20T13:37:47;7.72;;;2.22;;
65405;SDS011;52016;51.228;-2.322;2022-11-20T13:41:40;6.65;;;1.92;;
65405;SDS011;52016;51.228;-2.322;2022-11-20T13:45:27;4.32;;;1.50;;
65405;SDS011;52016;51.228;-2.322;2022-11-20T13:57:21;3.50;;;1.08;;
65405;SDS011;52016;51.228;-2.322;2022-11-20T14:01:10;5.53;;;1.70;;
65405;SDS011;52016;51.228;-2.322;2022-11-20T14:04:57;5.63;;;1.70;;
65405;SDS011;52016;51.228;-2.322;2022-11-20T14:08:47;10.82;;;2.10;;
65405;SDS011;52016;51.228;-2.322;2022-11-20T14:12:30;6.18;;;2.03;;
65405;SDS011;52016;51.228;-2.322;2022-11-20T14:16:18;12.63;;;4.50;;
65405;SDS011;52016;51.228;-2.322;2022-11-20T14:20:02;9.93;;;3.92;;
65405;SDS011;52016;51.228;-2.322;2022-11-20T14:23:47;6.18;;;2.45;;
65405;SDS011;52016;51.228;-2.322;2022-11-20T14:27:28;9.75;;;3.08;;
65405;SDS011;52016;51.228;-2.322;2022-11-20T14:31:16;5.70;;;2.33;;
65405;SDS011;52016;51.228;-2.322;2022-11-20T14:35:06;6.18;;;1.60;;
65405;SDS011;52016;51.228;-2.322;2022-11-20T14:38:51;6.87;;;1.93;;
65405;SDS011;52016;51.228;-2.322;2022-11-20T14:42:33;9.27;;;2.25;;
65405;SDS011;52016;51.228;-2.322;2022-11-20T14:46:15;11.18;;;4.10;;
65405;SDS011;52016;51.228;-2.322;2022-11-20T14:49:57;10.63;;;3.10;;
65405;SDS011;52016;51.228;-2.322;2022-11-20T14:53:48;10.30;;;2.67;;
65405;SDS011;52016;51.228;-2.322;2022-11-20T14:57:34;9.75;;;3.92;;
65405;SDS011;52016;51.228;-2.322;2022-11-20T15:01:18;9.65;;;3.53;;
65405;SDS011;52016;51.228;-2.322;2022-11-20T15:05:10;11.48;;;3.22;;
65405;SDS011;52016;51.228;-2.322;2022-11-20T15:08:53;12.73;;;3.83;;
65405;SDS011;52016;51.228;-2.322;2022-11-20T15:12:36;21.17;;;4.20;;
65405;SDS011;52016;51.228;-2.322;2022-11-20T15:16:21;12.98;;;2.80;;
65405;SDS011;52016;51.228;-2.322;2022-11-20T15:20:05;12.40;;;2.72;;
65405;SDS011;52016;51.228;-2.322;2022-11-20T15:23:56;12.73;;;2.95;;
65405;SDS011;52016;51.228;-2.322;2022-11-20T15:27:38;6.72;;;2.05;;
65405;SDS011;52016;51.228;-2.322;2022-11-20T15:31:21;12.48;;;2.92;;
65405;SDS011;52016;51.228;-2.322;2022-11-20T15:35:04;12.32;;;2.25;;
65405;SDS011;52016;51.228;-2.322;2022-11-20T15:38:47;9.70;;;2.67;;
65405;SDS011;52016;51.228;-2.322;2022-11-20T15:42:29;12.63;;;2.60;;
65405;SDS011;52016;51.228;-2.322;2022-11-20T15:46:11;9.07;;;2.30;;
65405;SDS011;52016;51.228;-2.322;2022-11-20T15:49:56;10.40;;;2.60;;
65405;SDS011;52016;51.228;-2.322;2022-11-20T15:53:38;11.70;;;2.88;;
65405;SDS011;52016;51.228;-2.322;2022-11-20T15:57:21;12.93;;;2.80;;
65405;SDS011;52016;51.228;-2.322;2022-11-20T16:01:03;10.10;;;2.78;;
65405;SDS011;52016;51.228;-2.322;2022-11-20T16:04:45;15.30;;;2.90;;
65405;SDS011;52016;51.228;-2.322;2022-11-20T16:08:26;16.15;;;3.95;;
65405;SDS011;52016;51.228;-2.322;2022-11-20T16:12:09;13.75;;;3.40;;
65405;SDS011;52016;51.228;-2.322;2022-11-20T16:16:13;11.50;;;2.83;;
65405;SDS011;52016;51.228;-2.322;2022-11-20T16:20:04;12.30;;;2.72;;
65405;SDS011;52016;51.228;-2.322;2022-11-20T16:23:46;14.02;;;3.45;;
65405;SDS011;52016;51.228;-2.322;2022-11-20T16:27:28;12.68;;;3.47;;
65405;SDS011;52016;51.228;-2.322;2022-11-20T16:31:14;11.55;;;4.03;;
65405;SDS011;52016;51.228;-2.322;2022-11-20T16:34:57;16.80;;;4.13;;
65405;SDS011;52016;51.228;-2.322;2022-11-20T16:38:39;13.93;;;4.13;;
65405;SDS011;52016;51.228;-2.322;2022-11-20T16:42:22;17.77;;;5.75;;
65405;SDS011;52016;51.228;-2.322;2022-11-20T16:46:03;20.80;;;7.43;;
65405;SDS011;52016;51.228;-2.322;2022-11-20T16:49:45;13.90;;;4.68;;
65405;SDS011;52016;51.228;-2.322;2022-11-20T16:53:27;20.45;;;4.90;;
65405;SDS011;52016;51.228;-2.322;2022-11-20T16:57:09;23.13;;;9.50;;
65405;SDS011;52016;51.228;-2.322;2022-11-20T17:00:50;22.00;;;5.50;;
65405;SDS011;52016;51.228;-2.322;2022-11-20T17:04:32;17.40;;;5.10;;
65405;SDS011;52016;51.228;-2.322;2022-11-20T17:08:14;16.05;;;5.40;;
65405;SDS011;52016;51.228;-2.322;2022-11-20T17:11:56;20.92;;;5.95;;
65405;SDS011;52016;51.228;-2.322;2022-11-20T17:15:37;16.55;;;4.60;;
65405;SDS011;52016;51.228;-2.322;2022-11-20T17:19:19;15.77;;;4.72;;
65405;SDS011;52016;51.228;-2.322;2022-11-20T17:23:01;15.25;;;4.95;;
65405;SDS011;52016;51.228;-2.322;2022-11-20T17:26:43;17.42;;;5.43;;
65405;SDS011;52016;51.228;-2.322;2022-11-20T17:30:25;21.50;;;8.70;;
65405;SDS011;52016;51.228;-2.322;2022-11-20T17:34:07;22.10;;;6.93;;
65405;SDS011;52016;51.228;-2.322;2022-11-20T17:37:52;18.08;;;5.70;;
65405;SDS011;52016;51.228;-2.322;2022-11-20T17:41:33;13.23;;;5.18;;
65405;SDS011;52016;51.228;-2.322;2022-11-20T17:45:15;24.42;;;9.90;;
65405;SDS011;52016;51.228;-2.322;2022-11-20T17:48:57;14.73;;;7.03;;
65405;SDS011;52016;51.228;-2.322;2022-11-20T17:52:39;20.63;;;6.82;;
65405;SDS011;52016;51.228;-2.322;2022-11-20T17:56:21;18.95;;;5.72;;
65405;SDS011;52016;51.228;-2.322;2022-11-20T18:00:22;22.08;;;6.38;;
65405;SDS011;52016;51.228;-2.322;2022-11-20T18:04:05;13.02;;;5.63;;
65405;SDS011;52016;51.228;-2.322;2022-11-20T18:07:50;17.90;;;6.53;;
65405;SDS011;52016;51.228;-2.322;2022-11-20T18:11:36;29.48;;;10.85;;
65405;SDS011;52016;51.228;-2.322;2022-11-20T18:15:19;17.80;;;7.28;;
65405;SDS011;52016;51.228;-2.322;2022-11-20T18:19:01;20.88;;;7.47;;
65405;SDS011;52016;51.228;-2.322;2022-11-20T18:22:42;16.85;;;6.45;;
65405;SDS011;52016;51.228;-2.322;2022-11-20T18:26:25;16.38;;;6.20;;
65405;SDS011;52016;51.228;-2.322;2022-11-20T18:30:07;22.88;;;7.32;;
65405;SDS011;52016;51.228;-2.322;2022-11-20T18:33:50;29.60;;;11.55;;
65405;SDS011;52016;51.228;-2.322;2022-11-20T18:37:32;37.45;;;19.08;;
65405;SDS011;52016;51.228;-2.322;2022-11-20T18:41:15;31.83;;;13.18;;
65405;SDS011;52016;51.228;-2.322;2022-11-20T18:45:17;22.08;;;9.82;;
65405;SDS011;52016;51.228;-2.322;2022-11-20T18:48:59;20.15;;;7.72;;
65405;SDS011;52016;51.228;-2.322;2022-11-20T18:52:41;14.82;;;5.60;;
65405;SDS011;52016;51.228;-2.322;2022-11-20T18:56:27;18.42;;;6.18;;
65405;SDS011;52016;51.228;-2.322;2022-11-20T19:00:10;34.35;;;14.10;;
65405;SDS011;52016;51.228;-2.322;2022-11-20T19:03:52;36.08;;;14.98;;
65405;SDS011;52016;51.228;-2.322;2022-11-20T19:07:34;38.80;;;15.38;;
65405;SDS011;52016;51.228;-2.322;2022-11-20T19:11:15;25.02;;;9.40;;
65405;SDS011;52016;51.228;-2.322;2022-11-20T19:14:58;26.45;;;13.25;;
65405;SDS011;52016;51.228;-2.322;2022-11-20T19:18:40;27.42;;;12.25;;
65405;SDS011;52016;51.228;-2.322;2022-11-20T19:22:22;25.02;;;9.75;;
65405;SDS011;52016;51.228;-2.322;2022-11-20T19:26:04;24.60;;;8.85;;
65405;SDS011;52016;51.228;-2.322;2022-11-20T19:29:47;19.77;;;6.13;;
65405;SDS011;52016;51.228;-2.322;2022-11-20T19:33:28;17.65;;;6.38;;
65405;SDS011;52016;51.228;-2.322;2022-11-20T19:37:10;24.42;;;7.93;;
65405;SDS011;52016;51.228;-2.322;2022-11-20T19:40:53;29.40;;;10.65;;
65405;SDS011;52016;51.228;-2.322;2022-11-20T19:44:34;24.30;;;10.05;;
65405;SDS011;52016;51.228;-2.322;2022-11-20T19:48:16;21.70;;;10.00;;
65405;SDS011;52016;51.228;-2.322;2022-11-20T19:51:58;25.02;;;9.30;;
65405;SDS011;52016;51.228;-2.322;2022-11-20T19:55:40;20.27;;;8.73;;
65405;SDS011;52016;51.228;-2.322;2022-11-20T19:59:23;20.58;;;8.75;;
65405;SDS011;52016;51.228;-2.322;2022-11-20T20:03:05;15.73;;;6.50;;
65405;SDS011;52016;51.228;-2.322;2022-11-20T20:06:47;29.77;;;10.55;;
65405;SDS011;52016;51.228;-2.322;2022-11-20T20:10:30;31.48;;;14.43;;
65405;SDS011;52016;51.228;-2.322;2022-11-20T20:14:13;43.58;;;16.00;;
65405;SDS011;52016;51.228;-2.322;2022-11-20T20:17:56;40.25;;;19.25;;
65405;SDS011;52016;51.228;-2.322;2022-11-20T20:21:38;20.42;;;8.85;;
65405;SDS011;52016;51.228;-2.322;2022-11-20T20:25:21;21.33;;;7.00;;
65405;SDS011;52016;51.228;-2.322;2022-11-20T20:29:03;19.85;;;7.97;;
65405;SDS011;52016;51.228;-2.322;2022-11-20T20:32:44;31.30;;;12.27;;
65405;SDS011;52016;51.228;-2.322;2022-11-20T20:36:26;34.38;;;11.57;;
65405;SDS011;52016;51.228;-2.322;2022-11-20T20:40:08;32.25;;;13.57;;
65405;SDS011;52016;51.228;-2.322;2022-11-20T20:43:55;34.45;;;12.75;;
65405;SDS011;52016;51.228;-2.322;2022-11-20T20:47:55;33.88;;;14.88;;
65405;SDS011;52016;51.228;-2.322;2022-11-20T20:51:37;40.53;;;20.30;;
65405;SDS011;52016;51.228;-2.322;2022-11-20T20:55:19;19.65;;;6.05;;
65405;SDS011;52016;51.228;-2.322;2022-11-20T20:59:02;13.40;;;4.85;;
65405;SDS011;52016;51.228;-2.322;2022-11-20T21:02:44;22.58;;;5.85;;
65405;SDS011;52016;51.228;-2.322;2022-11-20T21:06:25;17.58;;;6.00;;
65405;SDS011;52016;51.228;-2.322;2022-11-20T21:10:07;31.45;;;8.77;;
65405;SDS011;52016;51.228;-2.322;2022-11-20T21:13:49;24.63;;;10.52;;
65405;SDS011;52016;51.228;-2.322;2022-11-20T21:17:31;30.02;;;11.32;;
65405;SDS011;52016;51.228;-2.322;2022-11-20T21:21:13;25.42;;;8.77;;
65405;SDS011;52016;51.228;-2.322;2022-11-20T21:25:15;19.90;;;5.40;;
65405;SDS011;52016;51.228;-2.322;2022-11-20T21:28:56;16.83;;;4.55;;
65405;SDS011;52016;51.228;-2.322;2022-11-20T21:32:38;23.33;;;4.95;;
65405;SDS011;52016;51.228;-2.322;2022-11-20T21:36:21;35.83;;;13.27;;
65405;SDS011;52016;51.228;-2.322;2022-11-20T21:40:07;26.67;;;11.20;;
65405;SDS011;52016;51.228;-2.322;2022-11-20T21:43:49;18.23;;;5.63;;
65405;SDS011;52016;51.228;-2.322;2022-11-20T21:47:52;22.25;;;5.70;;
65405;SDS011;52016;51.228;-2.322;2022-11-20T21:51:34;17.60;;;4.97;;
65405;SDS011;52016;51.228;-2.322;2022-11-20T21:55:15;17.98;;;5.65;;
65405;SDS011;52016;51.228;-2.322;2022-11-20T21:58:57;20.20;;;5.20;;
65405;SDS011;52016;51.228;-2.322;2022-11-20T22:02:39;20.50;;;9.93;;
65405;SDS011;52016;51.228;-2.322;2022-11-20T22:06:21;19.90;;;5.40;;
65405;SDS011;52016;51.228;-2.322;2022-11-20T22:10:04;19.45;;;5.43;;
65405;SDS011;52016;51.228;-2.322;2022-11-20T22:13:46;18.23;;;5.55;;
65405;SDS011;52016;51.228;-2.322;2022-11-20T22:17:46;23.98;;;7.07;;
65405;SDS011;52016;51.228;-2.322;2022-11-20T22:21:47;20.88;;;5.43;;
65405;SDS011;52016;51.228;-2.322;2022-11-20T22:25:34;18.65;;;6.30;;
65405;SDS011;52016;51.228;-2.322;2022-11-20T22:29:16;15.82;;;5.25;;
65405;SDS011;52016;51.228;-2.322;2022-11-20T22:33:01;17.20;;;5.43;;
65405;SDS011;52016;51.228;-2.322;2022-11-20T22:36:42;20.50;;;7.35;;
65405;SDS011;52016;51.228;-2.322;2022-11-20T22:40:24;20.05;;;5.43;;
65405;SDS011;52016;51.228;-2.322;2022-11-20T22:44:06;17.13;;;5.45;;
65405;SDS011;52016;51.228;-2.322;2022-11-20T22:47:48;17.98;;;5.05;;
65405;SDS011;52016;51.228;-2.322;2022-11-20T22:51:31;26.85;;;7.78;;
65405;SDS011;52016;51.228;-2.322;2022-11-20T22:55:15;24.40;;;6.45;;
65405;SDS011;52016;51.228;-2.322;2022-11-20T22:58:57;22.30;;;6.97;;
65405;SDS011;52016;51.228;-2.322;2022-11-20T23:02:43;24.45;;;6.63;;
65405;SDS011;52016;51.228;-2.322;2022-11-20T23:06:25;21.60;;;5.10;;
65405;SDS011;52016;51.228;-2.322;2022-11-20T23:10:07;17.92;;;5.43;;
65405;SDS011;52016;51.228;-2.322;2022-11-20T23:13:56;19.65;;;5.38;;
65405;SDS011;52016;51.228;-2.322;2022-11-20T23:17:43;21.27;;;4.72;;
65405;SDS011;52016;51.228;-2.322;2022-11-20T23:21:25;21.23;;;5.35;;
65405;SDS011;52016;51.228;-2.322;2022-11-20T23:25:07;21.67;;;5.53;;
65405;SDS011;52016;51.228;-2.322;2022-11-20T23:28:51;21.55;;;4.82;;
65405;SDS011;52016;51.228;-2.322;2022-11-20T23:32:34;25.95;;;4.85;;